Weather


ICAO METAR
KAEX KAEX 210553Z 34004KT 10SM SCT065 OVC085 12/06 A3019 RMK AO2 SLP227 T01170056 10200 20117 402330028 51015 $
KAUS KAUS 210553Z 01006KT 10SM BKN055 OVC080 16/09 A3025 RMK AO2 SLP241 T01610089 10217 20128 402440056 51013
KBPT KBPT 210553Z AUTO 29006KT 10SM BKN080 14/10 A3020 RMK AO2 SLP225 T01440100 10189 20122 402500072 50004
KBTR KBTR 210553Z AUTO 25005KT 10SM OVC085 13/06 A3014 RMK AO2 SLP205 T01280056 10178 20106 402110033 58001
KCLL KCLL 210553Z AUTO 02009KT 10SM OVC070 16/08 A3024 RMK AO2 SLP238 T01560083 10206 20156 402440106 51009
KCRP KCRP 210551Z 28004KT 10SM BKN075 15/13 A3021 RMK AO2 SLP230 T01500128 10189 20150 402110150 50000
KCXO KCXO 210553Z AUTO 35005KT 10SM BKN065 OVC080 16/11 A3023 RMK AO2 SLP234 T01560106 10206 20106 402440050 50009
KDLF KDLF 210556Z AUTO 05006KT 10SM CLR 11/10 A3023 RMK AO2 SLP233 T01120103 10188 20112 401990109 50004 RVRNO $
KDWH KDWH 210553Z AUTO 00000KT 10SM SCT065 SCT090 16/11 A3023 RMK AO2 SLP235 T01610106 10222 20150 402440072 51011
KEFD KEFD 210450Z 26004KT 10SM FEW090 15/09 A3022
KGLS KGLS 210552Z AUTO 29007KT 9SM CLR 16/13 A3022 RMK AO2 SLP232 T01560133 10178 20144 402110117 51006
KGPT KGPT 210553Z AUTO 00000KT 9SM CLR 09/08 A3011 RMK AO2 SLP196 T00940078 10167 20083 402000044 58011
KHOU KHOU 210553Z 25007KT 10SM FEW070 16/09 A3021 RMK AO2 SLP236 T01560094 10233 20150 402440100 50008
KHRL KHRL 210552Z AUTO 01005KT 10SM OVC050 17/15 A3021 RMK AO2 SLP229 T01720150 10189 20172 402060167 50002
KIAH KIAH 210553Z 04007KT 10SM BKN065 BKN080 17/11 A3022 RMK AO2 SLP233 T01670111 10233 20139 402500078 51011
KLCH KLCH 210553Z AUTO 34008KT 10SM SCT075 15/07 A3020 RMK AO2 SLP235 T01500072 10189 20122 402390072 53007 $
KMOB KMOB 210556Z AUTO 25003KT 10SM CLR 10/08 A3011 RMK AO2 SLP194 T01000078 10161 20100 402170056 58010
KMSY KMSY 210553Z 26006KT 10SM CLR 12/07 A3013 RMK AO2 SLP207 T01220067 10194 20122 402110067 56009
KSAT KSAT 210551Z 07004KT 10SM OVC047 16/14 A3025 RMK AO2 SLP230 60026 T01610139 10217 20156 402390128 50005
KSGR KSGR 210553Z AUTO 27003KT 10SM FEW080 13/10 A3023 RMK AO2 SLP237 T01280100 10228 20128 402560083 51011
KTME KTME 210615Z AUTO 30005KT 10SM FEW043 BKN060 OVC080 16/11 A3025 RMK AO2

Next Generation Radar

This is a composite plot of the radar summary, echo tops, storm movement, TVS and MESO signatures and watch boxes. The radar summary is color coded by precip type. Greens, yellows and reds are rain. Pinks are mixed precipitation (freezing rain, sleet). Blues are snow. NOTE: Radar data is susceptible to a phenomena called anomalous propagation. This generally happens at night and appears as a area of 20 dBZ echos (darkest green) which is centered around each radar site and expands with time. To try and reduce the problem, low echo values near the radar sites have been removed.


GOES 13 Visible Radar

This image is the equivalent of taking a black and white photo of the earth. The bright areas show where the sun is being reflected back into space as a result of clouds or snow cover. Clouds and snow show up white. The thicker the cloud, the brighter the color. Land surfaces show up as gray and ocean surfaces nearly black. The major limitation to visible imagery is that it is only valid during daylight.

GOES 13 Infrared 12 Hour Loop

This type of image shows heat based radiation from the infrared spectrum. In other words, the warmer the surface, the more infrared radiation it emits. For a satellite image, cooler surfaces are bright and warmer surfaces are dark. Since the atmosphere cools as you increase in altitude, clouds would show up as bright areas and land surfaces as dark areas. In addition, low clouds will be more gray and higher clouds will show up more white. Tall thunderstorm clouds will show up as bright white and fog will be hard to discern from land areas. A large advantage of IR is that you can view it 24 hours a day.


Surface Data

This is a composite map contain the following analyses: radar summary (color filled areas), surface data plot (composite station model), frontal locations (in various bold lines) and pressure contours (in thin blue lines).